Caldwell, New Jersey
Current Conditions -  °F | °C
As of 7:53 PM on Sunday 23 Nov 2014 (Local Time) from KCDW Reporting Station
Clear Clear  
Wind Chill: 41°   Ceiling: Unl
Heat Index: 41°   Visibility: 10mi
Dew Point: 29°   Wind: 0mph
Humidity: 62%   Direction: NA
Pressure: 30.11"   Gusts: NA
Location:  40.84°N, 74.27°W
Report Text: KCDW 240053Z AUTO 00000KT 10SM CLR 05/M02 A3011 RMK AO2 SLP202 T00501017 TSNO
Loading
Personal Weather Stations






























Interactive Weather Map New forecast layout! Learn more

10-Day Weather Forecast

Advertisements
Track Severe Weather on mobile